ME88 weather

Morrison's Airport
Perry, Maine, United States

Public forecast

Using degrees Fahrenheit for public forecast. Weather courtesy of forecast.io.

Closest aviation weather report (METAR) to Morrison's Airport

Closest report is Saint John Airport, 53.8 nm (99.6 km) ENE. Retrieved 2020/02/17 11:00 UTC (50 minutes ago):

CYSJ 171100Z 34002KT 15SM FEW055 M09/M10 A3000 RMK SC2 SLP166

Closest aviation forecast (TAF) to Morrison's Airport

Closest forecast is Saint John Airport, 53.8 nm (99.6 km) ENE. Retrieved 2020/02/17 06:39 UTC (5 hours ago):

TAF CYSJ 170538Z 1706/1718 VRB03KT P6SM BKN040 FM171400 28010KT P6SM SCT040 RMK NXT FCST BY 171200Z